Helena — SCGL — position and weather

sailwx.info

Track history (hours):
 
Tides and Currents Weather Stations Pressure Air Temp Water Temp Dewpoint Dewpoint Depression Visibility Wind Speed Wind Dir Waves Ship Positions

Helena

Last reported at 2016-Jun-21 03:16 UTC. Time now 2016-Jun-25 21:35 UTC.
Position N 55°42' E 015°36'.

Length 169 m; draft 6.3 m.

Type: Cargo ship. MMSI: 265145000.

Date/timePositionNaut miles runAvg speedWind from/ knotsBaromVisibWave heightAir tempDewpointWater temp
2016-Jun-21 03:16N 55°42' E 015°36'1216.8
2016-Jun-21 02:33N 55°36' E 015°17'1716.9
2016-Jun-21 01:33N 55°28' E 014°51'1716.7
2016-Jun-21 00:34N 55°17' E 014°29'1716.8
2016-Jun-20 23:34N 55°04' E 014°11'1616.2
2016-Jun-20 22:33N 54°56' E 013°46'1616.1
2016-Jun-20 21:33N 54°51' E 013°19'1615.9
2016-Jun-20 20:33N 54°46' E 012°53'1615.8
2016-Jun-20 19:33N 54°38' E 012°29'1615.8
2016-Jun-20 18:33N 54°26' E 012°12'1515.4
2016-Jun-20 17:33N 54°20' E 011°48'1616.3
2016-Jun-20 16:33N 54°11' E 011°25'9 0.7
2016-Jun-20 02:27N 54°07' E 011°10'1213.4
2016-Jun-20 01:33N 54°14' E 011°27'1313.5
2016-Jun-20 00:33N 54°21' E 011°46'1312.9
2016-Jun-19 23:33N 54°26' E 012°07'1212.2
2016-Jun-19 22:32N 54°37' E 012°17'6613.3
2016-Jun-19 17:33N 55°04' E 014°03'9 9.0
2016-Jun-19 16:33N 55°11' E 014°13'9 9.2
2016-Jun-19 15:33N 55°18' E 014°23'9 9.4
2016-Jun-19 14:33N 55°25' E 014°33'9 9.1
2016-Jun-19 13:33N 55°30' E 014°47'9 8.8
2016-Jun-19 12:33N 55°34' E 015°01'8 8.2
2016-Jun-19 11:33N 55°38' E 015°13'  
2016-Jun-14 23:33N 59°51' E 019°39'1716.6
2016-Jun-14 22:33N 59°38' E 020°02'4615.1
2016-Jun-14 19:29N 58°55' E 019°29'13216.4
2016-Jun-14 11:26N 56°59' E 017°28'10315.0
2016-Jun-14 04:33N 55°40' E 015°29'1515.3
2016-Jun-14 03:34N 55°33' E 015°05'1515.4
2016-Jun-14 02:34N 55°25' E 014°42'1615.9
2016-Jun-14 01:33N 55°13' E 014°24'1615.9
2016-Jun-14 00:34N 55°01' E 014°07'1515.2
2016-Jun-13 23:34N 54°56' E 013°41'4914.7
2016-Jun-13 20:14N 54°35' E 012°25'1214.9
2016-Jun-13 19:25N 54°26' E 012°11'1314.6
2016-Jun-13 18:33N 54°21' E 011°51'1515.2
2016-Jun-13 17:33N 54°13' E 011°29'1515.0
2016-Jun-13 16:33N 54°04' E 011°08'3 0.2
2016-Jun-13 02:20N 54°07' E 011°10'912.1
2016-Jun-13 01:33N 54°13' E 011°23'1212.1
2016-Jun-13 00:33N 54°19' E 011°41'1211.9
2016-Jun-12 23:33N 54°25' E 011°59'2510.8
2016-Jun-12 21:13N 54°42' E 012°30'812.0
2016-Jun-12 20:33N 54°47' E 012°41'4310.7
2016-Jun-12 16:33N 55°01' E 013°52'1010.0
2016-Jun-12 15:33N 55°06' E 014°07'1010.3
2016-Jun-12 14:33N 55°14' E 014°19'1010.3
2016-Jun-12 13:33N 55°22' E 014°30'1010.2
2016-Jun-12 12:33N 55°29' E 014°43'1110.6
2016-Jun-12 11:33N 55°34' E 014°59'1010.5
2016-Jun-12 10:33N 55°40' E 015°15'197 9.3
2016-Jun-11 13:17N 58°23' E 018°39'7 9.6
2016-Jun-11 12:33N 58°29' E 018°46'10 9.6
2016-Jun-11 11:33N 58°37' E 018°56'10 9.9
2016-Jun-11 10:33N 58°45' E 019°06'10 9.8
2016-Jun-11 09:33N 58°54' E 019°16'9 9.3
2016-Jun-11 08:33N 59°01' E 019°26'  
Track history (hours):
 
Tides and Currents Weather Stations Pressure Air Temp Water Temp Dewpoint Dewpoint Depression Visibility Wind Speed Wind Dir Waves Ship Positions

Helena

Last reported at 2016-Jun-21 03:16 UTC. Time now 2016-Jun-25 21:35 UTC.
Position N 55°42' E 015°36'.

Length 169 m; draft 6.3 m.

Type: Cargo ship. MMSI: 265145000.

Date/timePositionNaut miles runAvg speedWind from/ knotsBaromVisibWave heightAir tempDewpointWater temp
2016-Jun-21 03:16N 55°42' E 015°36'1216.8
2016-Jun-21 02:33N 55°36' E 015°17'1716.9
2016-Jun-21 01:33N 55°28' E 014°51'1716.7
2016-Jun-21 00:34N 55°17' E 014°29'1716.8
2016-Jun-20 23:34N 55°04' E 014°11'1616.2
2016-Jun-20 22:33N 54°56' E 013°46'1616.1
2016-Jun-20 21:33N 54°51' E 013°19'1615.9
2016-Jun-20 20:33N 54°46' E 012°53'1615.8
2016-Jun-20 19:33N 54°38' E 012°29'1615.8
2016-Jun-20 18:33N 54°26' E 012°12'1515.4
2016-Jun-20 17:33N 54°20' E 011°48'1616.3
2016-Jun-20 16:33N 54°11' E 011°25'9 0.7
2016-Jun-20 02:27N 54°07' E 011°10'1213.4
2016-Jun-20 01:33N 54°14' E 011°27'1313.5
2016-Jun-20 00:33N 54°21' E 011°46'1312.9
2016-Jun-19 23:33N 54°26' E 012°07'1212.2
2016-Jun-19 22:32N 54°37' E 012°17'6613.3
2016-Jun-19 17:33N 55°04' E 014°03'9 9.0
2016-Jun-19 16:33N 55°11' E 014°13'9 9.2
2016-Jun-19 15:33N 55°18' E 014°23'9 9.4
2016-Jun-19 14:33N 55°25' E 014°33'9 9.1
2016-Jun-19 13:33N 55°30' E 014°47'9 8.8
2016-Jun-19 12:33N 55°34' E 015°01'8 8.2
2016-Jun-19 11:33N 55°38' E 015°13'  
2016-Jun-14 23:33N 59°51' E 019°39'1716.6
2016-Jun-14 22:33N 59°38' E 020°02'4615.1
2016-Jun-14 19:29N 58°55' E 019°29'13216.4
2016-Jun-14 11:26N 56°59' E 017°28'10315.0
2016-Jun-14 04:33N 55°40' E 015°29'1515.3
2016-Jun-14 03:34N 55°33' E 015°05'1515.4
2016-Jun-14 02:34N 55°25' E 014°42'1615.9
2016-Jun-14 01:33N 55°13' E 014°24'1615.9
2016-Jun-14 00:34N 55°01' E 014°07'1515.2
2016-Jun-13 23:34N 54°56' E 013°41'4914.7
2016-Jun-13 20:14N 54°35' E 012°25'1214.9
2016-Jun-13 19:25N 54°26' E 012°11'1314.6
2016-Jun-13 18:33N 54°21' E 011°51'1515.2
2016-Jun-13 17:33N 54°13' E 011°29'1515.0
2016-Jun-13 16:33N 54°04' E 011°08'3 0.2
2016-Jun-13 02:20N 54°07' E 011°10'912.1
2016-Jun-13 01:33N 54°13' E 011°23'1212.1
2016-Jun-13 00:33N 54°19' E 011°41'1211.9
2016-Jun-12 23:33N 54°25' E 011°59'2510.8
2016-Jun-12 21:13N 54°42' E 012°30'812.0
2016-Jun-12 20:33N 54°47' E 012°41'4310.7
2016-Jun-12 16:33N 55°01' E 013°52'1010.0
2016-Jun-12 15:33N 55°06' E 014°07'1010.3
2016-Jun-12 14:33N 55°14' E 014°19'1010.3
2016-Jun-12 13:33N 55°22' E 014°30'1010.2
2016-Jun-12 12:33N 55°29' E 014°43'1110.6
2016-Jun-12 11:33N 55°34' E 014°59'1010.5
2016-Jun-12 10:33N 55°40' E 015°15'197 9.3
2016-Jun-11 13:17N 58°23' E 018°39'7 9.6
2016-Jun-11 12:33N 58°29' E 018°46'10 9.6
2016-Jun-11 11:33N 58°37' E 018°56'10 9.9
2016-Jun-11 10:33N 58°45' E 019°06'10 9.8
2016-Jun-11 09:33N 58°54' E 019°16'9 9.3
2016-Jun-11 08:33N 59°01' E 019°26'  

Dump ship's entire track history